createdAt,value
2022-10-17T00:00:49.918Z,46.88
2022-10-17T00:03:39.966Z,46.92
2022-10-17T00:06:29.123Z,47.02
2022-10-17T00:09:19.133Z,47.05
2022-10-17T00:12:09.076Z,46.96
2022-10-17T00:14:57.896Z,47.20
2022-10-17T00:17:47.067Z,47.05
2022-10-17T00:20:39.010Z,47.02
2022-10-17T00:23:30.648Z,46.99
2022-10-17T00:26:22.072Z,47.04
2022-10-17T00:29:11.296Z,47.29
2022-10-17T00:32:00.371Z,46.99
2022-10-17T00:34:49.434Z,46.97
2022-10-17T00:37:38.299Z,46.73
2022-10-17T00:40:28.272Z,46.77
2022-10-17T00:43:19.249Z,46.94
2022-10-17T00:46:07.719Z,46.86
2022-10-17T00:48:57.457Z,46.89
2022-10-17T00:51:50.484Z,46.58
2022-10-17T00:54:41.536Z,46.84
2022-10-17T00:57:31.971Z,46.79
2022-10-17T01:00:21.925Z,46.78
2022-10-17T01:03:10.425Z,46.88
2022-10-17T01:05:58.990Z,46.67
2022-10-17T01:08:47.515Z,46.56
2022-10-17T01:11:41.621Z,46.82
2022-10-17T01:14:33.889Z,46.82
2022-10-17T01:17:31.698Z,46.82
2022-10-17T01:20:44.354Z,46.69
2022-10-17T01:23:49.742Z,46.59
2022-10-17T01:26:52.048Z,46.50
2022-10-17T01:29:55.055Z,46.67
2022-10-17T01:32:51.793Z,46.70
2022-10-17T01:35:43.747Z,46.46
2022-10-17T01:38:36.667Z,46.69
2022-10-17T01:41:30.742Z,46.67
2022-10-17T01:44:21.860Z,46.25
2022-10-17T01:47:12.684Z,46.69
2022-10-17T01:50:06.128Z,46.67
2022-10-17T01:52:56.469Z,46.50
2022-10-17T01:55:47.395Z,46.65
2022-10-17T01:58:39.357Z,46.28
2022-10-17T02:01:28.567Z,46.33
2022-10-17T02:04:17.033Z,46.38
2022-10-17T02:07:10.903Z,46.44
2022-10-17T02:09:59.304Z,46.36
2022-10-17T02:12:51.806Z,46.40
2022-10-17T02:16:06.325Z,46.36
2022-10-17T02:19:09.516Z,46.40
2022-10-17T02:22:07.280Z,46.53
2022-10-17T02:25:02.390Z,46.37
2022-10-17T02:27:55.585Z,46.33
2022-10-17T02:30:48.189Z,46.40
2022-10-17T02:33:40.793Z,46.30
2022-10-17T02:36:32.615Z,46.37
2022-10-17T02:39:22.068Z,46.26
2022-10-17T02:42:14.201Z,46.37
2022-10-17T02:45:05.068Z,46.18
2022-10-17T02:47:59.248Z,46.46
2022-10-17T02:50:56.393Z,46.36
2022-10-17T02:53:50.149Z,46.29
2022-10-17T02:56:43.475Z,46.36
2022-10-17T02:59:35.489Z,46.33
2022-10-17T03:02:24.317Z,46.26
2022-10-17T03:05:14.912Z,46.24
2022-10-17T03:08:03.793Z,46.27
2022-10-17T03:10:52.499Z,46.27
2022-10-17T03:13:40.955Z,46.30
2022-10-17T03:16:30.819Z,46.42
2022-10-17T03:19:19.170Z,46.51
2022-10-17T03:22:09.945Z,46.38
2022-10-17T03:24:58.463Z,46.46
2022-10-17T03:27:46.891Z,46.40
2022-10-17T03:30:35.793Z,46.44
2022-10-17T03:33:27.253Z,46.33
2022-10-17T03:36:17.069Z,46.22
2022-10-17T03:39:05.639Z,46.33
2022-10-17T03:41:54.032Z,45.95
2022-10-17T03:44:42.498Z,46.60
2022-10-17T03:47:31.290Z,46.49
2022-10-17T03:50:21.326Z,46.60
2022-10-17T03:53:09.778Z,46.65
2022-10-17T03:55:58.610Z,46.63
2022-10-17T03:58:47.327Z,46.56
2022-10-17T04:01:35.795Z,46.46
2022-10-17T04:04:24.309Z,46.61
2022-10-17T04:07:14.113Z,46.29
2022-10-17T04:10:02.555Z,46.53
2022-10-17T04:12:51.027Z,46.64
2022-10-17T04:15:39.413Z,46.62
2022-10-17T04:18:28.183Z,46.44
2022-10-17T04:21:16.635Z,46.59
2022-10-17T04:24:07.299Z,46.45
2022-10-17T04:26:56.043Z,46.41
2022-10-17T04:29:44.987Z,46.62
2022-10-17T04:32:33.411Z,47.10
2022-10-17T04:35:21.891Z,46.86
2022-10-17T04:38:10.403Z,46.94
2022-10-17T04:41:03.029Z,46.91
2022-10-17T04:43:51.640Z,47.12
2022-10-17T04:46:40.120Z,47.22
2022-10-17T04:49:28.735Z,46.79
2022-10-17T04:52:17.247Z,46.75
2022-10-17T04:55:06.434Z,46.96
2022-10-17T04:57:56.375Z,46.47
2022-10-17T05:00:45.062Z,46.42
2022-10-17T05:03:33.627Z,46.77
2022-10-17T05:06:23.401Z,46.84
2022-10-17T05:09:11.915Z,46.81
2022-10-17T05:12:00.350Z,46.75
2022-10-17T05:14:50.182Z,47.00
2022-10-17T05:17:38.617Z,46.76
2022-10-17T05:20:27.224Z,46.75
2022-10-17T05:23:15.655Z,46.68
2022-10-17T05:26:04.134Z,46.85
2022-10-17T05:28:53.221Z,46.78
2022-10-17T05:31:43.122Z,46.67
2022-10-17T05:34:31.594Z,46.78
2022-10-17T05:37:19.989Z,46.69
2022-10-17T05:40:09.724Z,46.63
2022-10-17T05:42:58.267Z,46.36
2022-10-17T05:45:47.004Z,46.42
2022-10-17T05:48:37.075Z,46.58
2022-10-17T05:51:27.724Z,46.63
2022-10-17T05:54:16.831Z,46.74
2022-10-17T05:57:05.979Z,46.52
2022-10-17T05:59:54.741Z,46.53
2022-10-17T06:02:43.550Z,46.69
2022-10-17T06:05:33.819Z,46.58
2022-10-17T06:08:23.477Z,46.70
2022-10-17T06:11:12.790Z,46.68
2022-10-17T06:14:01.649Z,46.63
2022-10-17T06:16:50.538Z,46.79
2022-10-17T06:19:41.532Z,46.85
2022-10-17T06:22:32.289Z,46.54
2022-10-17T06:25:21.237Z,46.79
2022-10-17T06:28:10.645Z,46.68
2022-10-17T06:30:59.506Z,46.49
2022-10-17T06:33:48.539Z,46.56
2022-10-17T06:36:38.417Z,46.67
2022-10-17T06:39:33.939Z,46.58
2022-10-17T06:42:23.236Z,46.63
2022-10-17T06:45:12.625Z,46.80
2022-10-17T06:48:01.241Z,46.69
2022-10-17T06:50:50.113Z,46.66
2022-10-17T06:53:40.031Z,46.52
2022-10-17T06:56:30.471Z,46.76
2022-10-17T06:59:19.100Z,46.61
2022-10-17T07:02:08.539Z,46.94
2022-10-17T07:04:57.593Z,46.86
2022-10-17T07:07:48.574Z,46.58
2022-10-17T07:10:41.444Z,46.20
2022-10-17T07:13:34.494Z,46.90
2022-10-17T07:16:27.094Z,46.61
2022-10-17T07:19:15.889Z,47.06
2022-10-17T07:22:04.610Z,46.99
2022-10-17T07:24:53.266Z,47.02
2022-10-17T07:27:42.264Z,46.94
2022-10-17T07:30:32.457Z,46.85
2022-10-17T07:33:21.327Z,46.79
2022-10-17T07:36:10.044Z,46.80
2022-10-17T07:39:01.054Z,46.45
2022-10-17T07:41:50.765Z,46.75
2022-10-17T07:44:39.213Z,46.59
2022-10-17T07:47:31.304Z,46.44
2022-10-17T07:50:21.738Z,46.57
2022-10-17T07:53:10.585Z,46.51
2022-10-17T07:55:59.104Z,46.57
2022-10-17T07:58:48.278Z,46.26
2022-10-17T08:01:36.961Z,46.40
2022-10-17T08:04:26.870Z,46.27
2022-10-17T08:07:22.087Z,46.75
2022-10-17T08:10:13.791Z,46.28
2022-10-17T08:13:04.127Z,46.15
2022-10-17T08:15:52.596Z,46.15
2022-10-17T08:18:42.403Z,46.25
2022-10-17T08:21:32.277Z,46.38
2022-10-17T08:24:20.975Z,46.53
2022-10-17T08:27:11.553Z,46.28
2022-10-17T08:30:00.390Z,46.44
2022-10-17T08:32:48.813Z,46.04
2022-10-17T08:35:37.296Z,46.36
2022-10-17T08:38:27.974Z,46.30
2022-10-17T08:41:25.380Z,45.95
2022-10-17T08:44:20.521Z,46.15
2022-10-17T08:47:13.499Z,46.29
2022-10-17T08:50:05.730Z,45.84
2022-10-17T08:52:56.659Z,46.15
2022-10-17T08:55:48.426Z,46.43
2022-10-17T08:58:40.221Z,46.06
2022-10-17T09:01:35.393Z,46.22
2022-10-17T09:04:40.387Z,46.25
2022-10-17T09:07:33.173Z,46.00
2022-10-17T09:10:27.578Z,46.10
2022-10-17T09:13:27.246Z,46.39
2022-10-17T09:16:31.201Z,46.14
2022-10-17T09:19:24.499Z,46.32
2022-10-17T09:22:16.554Z,45.93
2022-10-17T09:25:08.100Z,46.13
2022-10-17T09:28:01.240Z,45.87
2022-10-17T09:30:55.356Z,45.69
2022-10-17T09:34:00.469Z,45.88
2022-10-17T09:36:49.307Z,45.91
2022-10-17T09:39:38.097Z,45.88
2022-10-17T09:42:28.456Z,45.84
2022-10-17T09:45:24.696Z,45.74
2022-10-17T09:48:20.867Z,45.31
2022-10-17T09:51:25.089Z,45.68
2022-10-17T09:54:22.551Z,45.43
2022-10-17T09:57:14.949Z,45.69
2022-10-17T10:00:06.199Z,45.60
2022-10-17T10:03:10.848Z,45.45
2022-10-17T10:06:04.188Z,45.77
2022-10-17T10:08:54.639Z,45.08
2022-10-17T10:11:48.027Z,45.36
2022-10-17T10:14:40.656Z,45.25
2022-10-17T10:17:36.243Z,45.18
2022-10-17T10:20:30.918Z,45.22
2022-10-17T10:23:22.940Z,45.32
2022-10-17T10:26:22.300Z,45.47
2022-10-17T10:29:23.707Z,45.20
2022-10-17T10:32:14.095Z,45.21
2022-10-17T10:35:05.770Z,45.06
2022-10-17T10:37:56.208Z,44.87
2022-10-17T10:40:49.817Z,44.45
2022-10-17T10:43:42.514Z,44.51
2022-10-17T10:46:32.208Z,44.71
2022-10-17T10:49:31.582Z,44.97
2022-10-17T10:52:31.721Z,45.17
2022-10-17T10:55:25.818Z,44.85
2022-10-17T10:58:26.153Z,44.96
2022-10-17T11:01:23.491Z,44.96
2022-10-17T11:04:23.434Z,45.33
2022-10-17T11:07:15.104Z,45.10
2022-10-17T11:10:10.869Z,44.83
2022-10-17T11:13:02.485Z,44.43
2022-10-17T11:15:56.578Z,44.62
2022-10-17T11:18:49.148Z,44.76
2022-10-17T11:21:45.601Z,44.58
2022-10-17T11:24:39.102Z,44.43
2022-10-17T11:27:28.155Z,44.53
2022-10-17T11:30:17.318Z,44.93
2022-10-17T11:33:07.882Z,44.87
2022-10-17T11:36:01.958Z,44.85
2022-10-17T11:38:53.589Z,44.54
2022-10-17T11:41:44.895Z,44.73
2022-10-17T11:44:36.874Z,44.64
2022-10-17T11:47:33.764Z,44.91
2022-10-17T11:53:48.670Z,44.99
2022-10-17T11:56:42.954Z,45.45
2022-10-17T11:59:55.405Z,45.29
2022-10-17T12:02:48.999Z,44.78
2022-10-17T12:05:46.559Z,44.28
2022-10-17T12:08:40.536Z,44.85
2022-10-17T12:11:35.750Z,44.69
2022-10-17T12:14:42.209Z,45.30
2022-10-17T12:17:34.754Z,45.08
2022-10-17T12:20:29.055Z,44.86
2022-10-17T12:23:29.984Z,44.60
2022-10-17T12:26:27.443Z,44.48
2022-10-17T12:29:27.427Z,44.46
2022-10-17T12:32:16.799Z,44.26
2022-10-17T12:35:05.924Z,43.76
2022-10-17T12:38:25.234Z,43.98
2022-10-17T12:41:15.375Z,44.14
2022-10-17T12:44:03.827Z,43.48
2022-10-17T12:46:53.241Z,43.75
2022-10-17T12:49:46.657Z,43.35
2022-10-17T12:52:59.956Z,43.52
2022-10-17T12:55:51.745Z,44.14
2022-10-17T12:58:44.791Z,43.81
2022-10-17T13:01:34.796Z,44.08
2022-10-17T13:04:23.844Z,44.10
2022-10-17T13:07:19.624Z,44.23
2022-10-17T13:10:17.601Z,44.19
2022-10-17T13:13:15.302Z,44.00
2022-10-17T13:16:05.562Z,43.60
2022-10-17T13:18:54.493Z,43.92
2022-10-17T13:21:51.431Z,43.72
2022-10-17T13:24:41.270Z,43.49
2022-10-17T13:27:31.811Z,43.75
2022-10-17T13:30:29.414Z,43.96
2022-10-17T13:33:32.373Z,43.69
2022-10-17T13:36:20.990Z,43.32
2022-10-17T13:39:12.342Z,42.68
2022-10-17T13:42:04.073Z,42.23
2022-10-17T13:44:53.149Z,41.78
2022-10-17T13:47:43.406Z,42.61
2022-10-17T13:50:44.648Z,42.17
2022-10-17T13:53:34.864Z,41.75
2022-10-17T13:56:29.249Z,42.35
2022-10-17T13:59:25.395Z,42.89
2022-10-17T14:02:17.198Z,43.16
2022-10-17T14:05:18.132Z,43.12
2022-10-17T14:08:14.272Z,43.25
2022-10-17T14:11:16.307Z,43.36
2022-10-17T14:14:07.123Z,43.34
2022-10-17T14:16:55.923Z,43.07
2022-10-17T14:19:48.455Z,43.14
2022-10-17T14:22:50.428Z,43.09
2022-10-17T14:25:45.242Z,43.03
2022-10-17T14:28:34.439Z,43.27
2022-10-17T14:31:27.321Z,43.02
2022-10-17T14:34:32.458Z,43.33
2022-10-17T14:37:33.501Z,43.43
2022-10-17T14:40:24.618Z,43.17
2022-10-17T14:43:23.994Z,43.44
2022-10-17T14:46:17.372Z,43.57
2022-10-17T14:49:08.660Z,43.28
2022-10-17T14:52:29.740Z,43.30
2022-10-17T14:55:24.644Z,43.35
2022-10-17T14:58:35.469Z,43.24
2022-10-17T15:01:24.642Z,43.06
2022-10-17T15:04:13.544Z,43.06
2022-10-17T15:07:02.597Z,43.07
2022-10-17T15:09:52.997Z,43.35
2022-10-17T15:12:51.076Z,43.27
2022-10-17T15:15:52.462Z,43.26
2022-10-17T15:18:41.583Z,43.12
2022-10-17T15:21:40.517Z,43.48
2022-10-17T15:24:32.308Z,43.61
2022-10-17T15:27:22.581Z,43.41
2022-10-17T15:30:21.612Z,43.40
2022-10-17T15:33:12.400Z,43.47
2022-10-17T15:36:01.681Z,43.59
2022-10-17T15:38:51.030Z,43.69
2022-10-17T15:41:39.921Z,43.98
2022-10-17T15:44:29.428Z,43.85
2022-10-17T15:47:24.878Z,43.87
2022-10-17T15:50:16.630Z,43.81
2022-10-17T15:53:07.661Z,44.00
2022-10-17T15:55:56.942Z,43.83
2022-10-17T15:58:45.601Z,43.94
2022-10-17T16:01:35.514Z,43.98
2022-10-17T16:04:27.472Z,43.98
2022-10-17T16:10:35.265Z,44.15
2022-10-17T16:13:25.707Z,44.39
2022-10-17T16:16:31.584Z,44.42
2022-10-17T16:19:21.267Z,44.46
2022-10-17T16:22:19.306Z,44.33
2022-10-17T16:25:10.383Z,44.50
2022-10-17T16:28:02.322Z,44.74
2022-10-17T16:30:52.895Z,44.56
2022-10-17T16:33:41.629Z,44.42
2022-10-17T16:36:30.649Z,44.73
2022-10-17T16:39:21.747Z,44.59
2022-10-17T16:42:10.503Z,44.54
2022-10-17T16:44:59.882Z,44.71
2022-10-17T16:47:48.792Z,44.79
2022-10-17T16:50:41.546Z,44.57
2022-10-17T16:53:31.916Z,44.70
2022-10-17T16:56:24.076Z,44.82
2022-10-17T16:59:13.010Z,45.09
2022-10-17T17:02:01.397Z,44.93
2022-10-17T17:04:49.861Z,45.33
2022-10-17T17:07:38.398Z,45.34
2022-10-17T17:10:26.858Z,45.24
2022-10-17T17:13:16.862Z,45.25
2022-10-17T17:16:07.415Z,45.27
2022-10-17T17:18:57.552Z,45.15
2022-10-17T17:21:50.204Z,45.23
2022-10-17T17:24:39.430Z,45.19
2022-10-17T17:27:29.826Z,45.07
2022-10-17T17:30:20.584Z,45.10
2022-10-17T17:33:11.520Z,45.17
2022-10-17T17:36:02.323Z,44.87
2022-10-17T17:38:52.268Z,44.99
2022-10-17T17:41:43.977Z,45.06
2022-10-17T17:44:34.405Z,44.60
2022-10-17T17:47:25.334Z,44.77
2022-10-17T17:50:15.368Z,44.02
2022-10-17T17:53:04.016Z,44.41
2022-10-17T17:56:03.190Z,44.37
2022-10-17T17:58:58.196Z,43.92
2022-10-17T18:01:47.427Z,43.98
2022-10-17T18:04:37.485Z,43.81
2022-10-17T18:07:26.084Z,44.31
2022-10-17T18:13:04.047Z,44.37
2022-10-17T18:15:52.823Z,45.13
2022-10-17T18:18:42.201Z,45.08
2022-10-17T18:21:32.302Z,44.80
2022-10-17T18:24:20.820Z,44.58
2022-10-17T18:27:09.334Z,44.93
2022-10-17T18:29:57.919Z,44.47
2022-10-17T18:32:46.419Z,45.18
2022-10-17T18:35:36.130Z,44.44
2022-10-17T18:38:26.330Z,44.80
2022-10-17T18:41:16.108Z,45.35
2022-10-17T18:44:04.685Z,44.32
2022-10-17T18:46:53.472Z,44.44
2022-10-17T18:49:42.870Z,44.36
2022-10-17T18:52:31.245Z,44.70
2022-10-17T18:55:21.227Z,45.12
2022-10-17T18:58:10.672Z,45.22
2022-10-17T19:01:04.446Z,45.05
2022-10-17T19:03:54.135Z,44.41
2022-10-17T19:06:43.318Z,44.52
2022-10-17T19:09:31.807Z,45.22
2022-10-17T19:12:21.669Z,45.10
2022-10-17T19:15:11.501Z,45.07
2022-10-17T19:17:59.915Z,45.09
2022-10-17T19:20:48.463Z,45.21
2022-10-17T19:23:38.029Z,45.08
2022-10-17T19:26:27.515Z,45.24
2022-10-17T19:29:18.946Z,45.41
2022-10-17T19:32:14.193Z,45.16
2022-10-17T19:35:05.937Z,45.63
2022-10-17T19:37:54.415Z,45.18
2022-10-17T19:40:42.841Z,45.63
2022-10-17T19:43:31.570Z,45.17
2022-10-17T19:46:24.648Z,45.08
2022-10-17T19:49:13.252Z,44.89
2022-10-17T19:52:01.892Z,45.26
2022-10-17T19:54:53.280Z,45.43
2022-10-17T19:57:41.732Z,45.72
2022-10-17T20:00:30.153Z,44.71
2022-10-17T20:03:21.422Z,44.73
2022-10-17T20:06:10.218Z,44.57
2022-10-17T20:08:58.686Z,44.28
2022-10-17T20:11:47.528Z,44.31
2022-10-17T20:14:40.079Z,44.42
2022-10-17T20:17:29.446Z,43.85
2022-10-17T20:20:19.749Z,44.10
2022-10-17T20:23:08.248Z,43.68
2022-10-17T20:26:08.709Z,43.70
2022-10-17T20:29:13.419Z,43.95
2022-10-17T20:32:04.311Z,44.38
2022-10-17T20:34:53.380Z,44.40
2022-10-17T20:37:43.139Z,44.06
2022-10-17T20:40:35.569Z,43.73
2022-10-17T20:43:24.303Z,43.59
2022-10-17T20:46:23.541Z,43.76
2022-10-17T20:49:24.917Z,43.57
2022-10-17T20:52:13.342Z,43.62
2022-10-17T20:55:04.340Z,44.16
2022-10-17T20:57:54.262Z,44.37
2022-10-17T21:00:43.641Z,44.85
2022-10-17T21:03:32.087Z,44.06
2022-10-17T21:06:21.333Z,44.33
2022-10-17T21:09:10.924Z,43.81
2022-10-17T21:14:54.736Z,44.05
2022-10-17T21:17:43.129Z,44.03
2022-10-17T21:20:32.456Z,43.84
2022-10-17T21:23:20.929Z,43.98
2022-10-17T21:26:10.125Z,44.13
2022-10-17T21:29:03.015Z,43.75
2022-10-17T21:31:51.808Z,44.46
2022-10-17T21:34:40.355Z,44.58
2022-10-17T21:37:28.787Z,44.91
2022-10-17T21:40:17.517Z,44.24
2022-10-17T21:43:05.961Z,43.79
2022-10-17T21:45:55.715Z,43.48
2022-10-17T21:48:44.522Z,43.66
2022-10-17T21:51:32.926Z,43.41
2022-10-17T21:54:23.983Z,43.65
2022-10-17T21:57:12.473Z,43.44
2022-10-17T22:00:00.960Z,43.66
2022-10-17T22:02:50.746Z,43.53
2022-10-17T22:05:39.187Z,43.72
2022-10-17T22:08:27.695Z,44.08
2022-10-17T22:11:18.444Z,44.16
2022-10-17T22:14:08.762Z,43.98
2022-10-17T22:16:58.426Z,44.10
2022-10-17T22:19:48.931Z,43.72
2022-10-17T22:22:37.423Z,44.29
2022-10-17T22:25:25.974Z,43.97
2022-10-17T22:28:14.439Z,44.07
2022-10-17T22:31:03.417Z,43.94
2022-10-17T22:33:52.124Z,43.61
2022-10-17T22:36:41.896Z,43.49
2022-10-17T22:39:30.386Z,44.16
2022-10-17T22:42:18.869Z,44.74
2022-10-17T22:45:07.997Z,44.74
2022-10-17T22:47:56.454Z,44.53
2022-10-17T22:50:45.708Z,44.96
2022-10-17T22:53:37.307Z,44.56
2022-10-17T22:56:25.817Z,44.77
2022-10-17T22:59:15.395Z,45.07
2022-10-17T23:02:03.915Z,45.26
2022-10-17T23:04:52.470Z,45.23
2022-10-17T23:07:40.908Z,45.26
2022-10-17T23:10:30.677Z,45.97
2022-10-17T23:13:19.867Z,45.93
2022-10-17T23:16:09.775Z,45.98
2022-10-17T23:18:59.104Z,45.92
2022-10-17T23:21:47.564Z,45.92
2022-10-17T23:24:36.462Z,45.93
2022-10-17T23:27:26.303Z,46.16
2022-10-17T23:30:14.746Z,45.87
2022-10-17T23:33:03.300Z,45.96
2022-10-17T23:35:51.753Z,46.03
2022-10-17T23:38:40.608Z,46.30
2022-10-17T23:41:29.043Z,46.35
2022-10-17T23:44:19.246Z,46.41
2022-10-17T23:47:07.655Z,46.26
2022-10-17T23:49:56.087Z,46.54
2022-10-17T23:52:46.885Z,46.32
2022-10-17T23:55:35.337Z,46.43
2022-10-17T23:58:23.799Z,46.44
